createdAt,value
2018-07-14T00:01:51.301Z,24.05
2018-07-14T00:04:19.864Z,23.98
2018-07-14T00:06:48.141Z,24.02
2018-07-14T00:09:16.631Z,23.92
2018-07-14T00:11:44.998Z,23.85
2018-07-14T00:14:13.273Z,23.80
2018-07-14T00:16:41.654Z,23.75
2018-07-14T00:19:10.030Z,23.68
2018-07-14T00:21:38.521Z,23.52
2018-07-14T00:24:06.819Z,23.63
2018-07-14T00:26:35.109Z,23.72
2018-07-14T00:29:03.559Z,23.77
2018-07-14T00:31:31.923Z,23.82
2018-07-14T00:34:00.202Z,23.84
2018-07-14T00:36:28.573Z,23.82
2018-07-14T00:38:56.844Z,23.82
2018-07-14T00:41:25.134Z,23.85
2018-07-14T00:43:53.609Z,23.85
2018-07-14T00:46:22.093Z,23.83
2018-07-14T00:48:50.470Z,23.85
2018-07-14T00:51:18.941Z,23.87
2018-07-14T00:53:47.125Z,23.80
2018-07-14T00:56:15.494Z,23.81
2018-07-14T00:58:43.778Z,23.75
2018-07-14T01:01:12.055Z,23.72
2018-07-14T01:03:40.213Z,23.73
2018-07-14T01:06:08.601Z,23.80
2018-07-14T01:08:36.777Z,23.84
2018-07-14T01:11:05.257Z,23.87
2018-07-14T01:13:33.513Z,23.84
2018-07-14T01:16:01.475Z,23.80
2018-07-14T01:18:29.877Z,23.81
2018-07-14T01:20:58.144Z,23.87
2018-07-14T01:23:26.428Z,23.99
2018-07-14T01:25:54.901Z,24.05
2018-07-14T01:28:23.077Z,24.04
2018-07-14T01:30:51.552Z,24.02
2018-07-14T01:33:19.933Z,24.08
2018-07-14T01:35:48.309Z,24.12
2018-07-14T01:38:16.789Z,23.96
2018-07-14T01:40:45.086Z,23.95
2018-07-14T01:43:13.451Z,23.93
2018-07-14T01:45:41.832Z,23.85
2018-07-14T01:48:10.007Z,23.95
2018-07-14T01:50:38.381Z,23.79
2018-07-14T01:53:06.750Z,23.81
2018-07-14T01:55:35.040Z,23.63
2018-07-14T01:58:03.410Z,23.63
2018-07-14T02:00:31.782Z,23.71
2018-07-14T02:03:00.064Z,23.55
2018-07-14T02:05:28.332Z,23.60
2018-07-14T02:07:56.689Z,23.61
2018-07-14T02:10:24.988Z,23.54
2018-07-14T02:12:53.265Z,23.48
2018-07-14T02:15:21.545Z,23.42
2018-07-14T02:17:49.917Z,23.46
2018-07-14T02:20:18.197Z,23.29
2018-07-14T02:22:46.461Z,23.47
2018-07-14T02:25:14.637Z,23.56
2018-07-14T02:27:42.822Z,23.56
2018-07-14T02:30:11.198Z,23.53
2018-07-14T02:32:39.170Z,23.57
2018-07-14T02:35:07.534Z,23.55
2018-07-14T02:37:35.813Z,23.55
2018-07-14T02:40:04.300Z,23.56
2018-07-14T02:42:32.670Z,23.57
2018-07-14T02:45:00.950Z,23.70
2018-07-14T02:47:28.852Z,23.70
2018-07-14T02:49:57.196Z,23.65
2018-07-14T02:52:25.473Z,23.66
2018-07-14T02:54:53.353Z,23.65
2018-07-14T02:57:21.706Z,23.53
2018-07-14T02:59:50.033Z,23.43
2018-07-14T03:02:18.131Z,23.32
2018-07-14T03:04:46.350Z,23.36
2018-07-14T03:07:14.819Z,23.29
2018-07-14T03:09:42.976Z,23.30
2018-07-14T03:12:11.153Z,23.35
2018-07-14T03:14:39.438Z,23.30
2018-07-14T03:17:07.805Z,23.25
2018-07-14T03:19:36.285Z,23.36
2018-07-14T03:22:04.779Z,23.33
2018-07-14T03:24:33.050Z,23.28
2018-07-14T03:27:01.327Z,23.22
2018-07-14T03:29:29.593Z,23.25
2018-07-14T03:31:57.870Z,23.25
2018-07-14T03:34:26.341Z,23.23
2018-07-14T03:36:54.521Z,23.21
2018-07-14T03:39:22.806Z,23.26
2018-07-14T03:41:51.132Z,23.25
2018-07-14T03:44:19.459Z,23.35
2018-07-14T03:46:47.747Z,23.28
2018-07-14T03:49:16.112Z,23.24
2018-07-14T03:51:44.489Z,23.26
2018-07-14T03:54:12.852Z,23.30
2018-07-14T03:56:41.035Z,23.29
2018-07-14T03:59:09.418Z,23.38
2018-07-14T04:01:37.592Z,23.51
2018-07-14T04:04:05.867Z,23.50
2018-07-14T04:06:34.258Z,23.72
2018-07-14T04:09:02.843Z,23.74
2018-07-14T04:11:31.209Z,23.79
2018-07-14T04:13:59.582Z,23.83
2018-07-14T04:16:27.759Z,23.89
2018-07-14T04:18:56.026Z,23.77
2018-07-14T04:21:24.192Z,23.72
2018-07-14T04:23:52.477Z,23.76
2018-07-14T04:26:20.858Z,23.83
2018-07-14T04:28:49.226Z,23.85
2018-07-14T04:31:17.514Z,23.86
2018-07-14T04:33:45.674Z,23.87
2018-07-14T04:36:13.846Z,23.86
2018-07-14T04:38:42.127Z,23.95
2018-07-14T04:41:10.434Z,23.96
2018-07-14T04:43:38.786Z,24.00
2018-07-14T04:46:07.358Z,23.96
2018-07-14T04:48:35.642Z,23.84
2018-07-14T04:51:04.022Z,24.03
2018-07-14T04:53:32.291Z,24.07
2018-07-14T04:56:00.442Z,24.14
2018-07-14T04:58:28.842Z,24.19
2018-07-14T05:00:57.113Z,24.18
2018-07-14T05:03:25.392Z,24.24
2018-07-14T05:05:53.878Z,24.24
2018-07-14T05:08:22.245Z,24.25
2018-07-14T05:10:50.433Z,24.25
2018-07-14T05:13:18.711Z,24.23
2018-07-14T05:15:47.172Z,24.39
2018-07-14T05:18:15.349Z,24.42
2018-07-14T05:20:43.734Z,24.58
2018-07-14T05:23:11.798Z,24.51
2018-07-14T05:25:39.764Z,24.54
2018-07-14T05:28:08.054Z,24.55
2018-07-14T05:30:36.431Z,24.67
2018-07-14T05:33:04.702Z,24.57
2018-07-14T05:35:33.285Z,24.71
2018-07-14T05:38:01.561Z,24.77
2018-07-14T05:40:29.824Z,24.83
2018-07-14T05:42:58.111Z,24.87
2018-07-14T05:45:26.425Z,24.86
2018-07-14T05:47:54.866Z,24.97
2018-07-14T05:50:23.134Z,24.98
2018-07-14T05:52:51.522Z,25.05
2018-07-14T05:55:19.797Z,25.05
2018-07-14T05:57:48.101Z,25.15
2018-07-14T06:00:16.652Z,25.17
2018-07-14T06:02:44.926Z,25.28
2018-07-14T06:05:13.305Z,25.35
2018-07-14T06:07:41.728Z,25.37
2018-07-14T06:10:10.062Z,25.38
2018-07-14T06:12:38.441Z,25.41
2018-07-14T06:15:06.918Z,25.41
2018-07-14T06:17:35.488Z,25.47
2018-07-14T06:20:03.881Z,25.54
2018-07-14T06:22:32.349Z,25.64
2018-07-14T06:25:00.686Z,25.65
2018-07-14T06:27:29.114Z,25.66
2018-07-14T06:29:57.390Z,25.72
2018-07-14T06:32:25.762Z,25.78
2018-07-14T06:34:53.933Z,25.91
2018-07-14T06:37:22.315Z,25.93
2018-07-14T06:39:50.696Z,25.95
2018-07-14T06:42:18.651Z,26.11
2018-07-14T06:44:47.175Z,26.22
2018-07-14T06:47:15.528Z,26.19
2018-07-14T06:49:43.724Z,26.12
2018-07-14T06:52:12.169Z,26.16
2018-07-14T06:54:40.349Z,26.32
2018-07-14T06:57:08.390Z,26.44
2018-07-14T06:59:36.696Z,26.35
2018-07-14T07:02:04.962Z,26.40
2018-07-14T07:04:33.145Z,26.50
2018-07-14T07:07:01.430Z,26.55
2018-07-14T07:09:29.903Z,26.65
2018-07-14T07:11:58.081Z,26.65
2018-07-14T07:14:26.345Z,26.63
2018-07-14T07:16:54.725Z,26.61
2018-07-14T07:19:22.644Z,26.65
2018-07-14T07:21:50.969Z,26.73
2018-07-14T07:24:19.452Z,26.84
2018-07-14T07:26:47.717Z,26.92
2018-07-14T07:29:16.106Z,26.94
2018-07-14T07:31:44.387Z,26.97
2018-07-14T07:34:12.746Z,27.00
2018-07-14T07:36:41.138Z,27.10
2018-07-14T07:39:09.505Z,27.18
2018-07-14T07:41:37.881Z,27.16
2018-07-14T07:44:06.171Z,27.19
2018-07-14T07:46:34.442Z,27.18
2018-07-14T07:49:03.010Z,27.23
2018-07-14T07:51:31.440Z,27.32
2018-07-14T07:53:59.770Z,27.33
2018-07-14T07:56:28.081Z,27.29
2018-07-14T07:58:56.231Z,27.35
2018-07-14T08:01:24.706Z,27.40
2018-07-14T08:03:52.981Z,27.43
2018-07-14T08:06:20.889Z,27.50
2018-07-14T08:08:49.205Z,27.56
2018-07-14T08:11:17.397Z,27.64
2018-07-14T08:13:45.684Z,27.76
2018-07-14T08:16:14.046Z,27.88
2018-07-14T08:18:42.421Z,27.86
2018-07-14T08:21:10.498Z,27.80
2018-07-14T08:23:38.877Z,27.74
2018-07-14T08:26:07.158Z,27.76
2018-07-14T08:28:35.641Z,27.95
2018-07-14T08:31:04.004Z,28.05
2018-07-14T08:33:32.390Z,27.89
2018-07-14T08:36:00.665Z,27.86
2018-07-14T08:38:28.933Z,27.85
2018-07-14T08:40:57.423Z,27.93
2018-07-14T08:43:25.743Z,27.93
2018-07-14T08:45:54.078Z,27.93
2018-07-14T08:48:22.349Z,28.01
2018-07-14T08:50:50.630Z,28.03
2018-07-14T08:53:18.795Z,28.09
2018-07-14T08:55:46.961Z,28.21
2018-07-14T08:58:15.320Z,28.15
2018-07-14T09:00:43.613Z,28.15
2018-07-14T09:03:11.797Z,28.25
2018-07-14T09:05:40.921Z,28.22
2018-07-14T09:08:09.273Z,28.19
2018-07-14T09:10:37.648Z,28.22
2018-07-14T09:13:05.813Z,28.22
2018-07-14T09:15:34.096Z,28.35
2018-07-14T09:18:02.467Z,28.33
2018-07-14T09:20:30.852Z,28.44
2018-07-14T09:22:59.242Z,28.47
2018-07-14T09:25:27.507Z,28.60
2018-07-14T09:27:55.782Z,28.63
2018-07-14T09:30:24.362Z,28.67
2018-07-14T09:32:52.240Z,28.52
2018-07-14T09:35:20.702Z,28.60
2018-07-14T09:37:49.044Z,28.67
2018-07-14T09:40:17.349Z,28.72
2018-07-14T09:42:46.818Z,28.70
2018-07-14T09:45:15.246Z,28.82
2018-07-14T09:47:43.446Z,29.03
2018-07-14T09:50:11.900Z,29.14
2018-07-14T09:52:40.274Z,29.04
2018-07-14T09:55:08.664Z,29.12
2018-07-14T09:57:37.121Z,29.10
2018-07-14T10:00:09.293Z,29.04
2018-07-14T10:02:37.343Z,28.79
2018-07-14T10:05:05.654Z,28.86
2018-07-14T10:07:33.914Z,29.02
2018-07-14T10:10:02.202Z,29.00
2018-07-14T10:12:30.682Z,29.09
2018-07-14T10:14:58.892Z,29.12
2018-07-14T10:17:27.285Z,29.15
2018-07-14T10:19:55.485Z,29.21
2018-07-14T10:22:23.957Z,29.41
2018-07-14T10:24:52.157Z,29.44
2018-07-14T10:27:20.451Z,29.49
2018-07-14T10:29:48.710Z,29.59
2018-07-14T10:32:17.077Z,29.62
2018-07-14T10:34:45.462Z,29.75
2018-07-14T10:37:13.638Z,29.63
2018-07-14T10:39:42.110Z,29.52
2018-07-14T10:42:10.384Z,29.54
2018-07-14T10:44:38.657Z,29.57
2018-07-14T10:47:06.932Z,29.61
2018-07-14T10:49:35.322Z,29.66
2018-07-14T10:52:03.689Z,29.86
2018-07-14T10:54:32.079Z,29.90
2018-07-14T10:57:00.349Z,29.92
2018-07-14T10:59:28.626Z,29.89
2018-07-14T11:01:56.902Z,29.85
2018-07-14T11:04:24.790Z,29.90
2018-07-14T11:06:52.733Z,29.77
2018-07-14T11:09:20.646Z,29.78
2018-07-14T11:11:48.570Z,29.76
2018-07-14T11:14:16.464Z,29.54
2018-07-14T11:16:44.365Z,29.60
2018-07-14T11:19:12.447Z,29.49
2018-07-14T11:21:40.334Z,29.46
2018-07-14T11:24:08.235Z,29.54
2018-07-14T11:26:36.158Z,29.65
2018-07-14T11:29:04.106Z,29.62
2018-07-14T11:31:32.001Z,29.69
2018-07-14T11:34:00.277Z,29.89
2018-07-14T11:36:28.149Z,29.90
2018-07-14T11:38:56.081Z,29.70
2018-07-14T11:41:23.988Z,29.87
2018-07-14T11:43:51.882Z,29.64
2018-07-14T11:46:19.797Z,29.70
2018-07-14T11:48:47.703Z,29.47
2018-07-14T11:51:15.615Z,29.64
2018-07-14T11:53:43.512Z,29.54
2018-07-14T11:56:11.396Z,29.64
2018-07-14T11:58:39.306Z,29.89
2018-07-14T12:01:07.294Z,29.91
2018-07-14T12:03:35.213Z,30.03
2018-07-14T12:06:03.230Z,29.67
2018-07-14T12:08:31.164Z,29.34
2018-07-14T12:10:59.130Z,29.48
2018-07-14T12:13:27.093Z,29.64
2018-07-14T12:15:54.953Z,29.62
2018-07-14T12:18:22.895Z,29.51
2018-07-14T12:20:50.881Z,29.50
2018-07-14T12:23:18.815Z,29.85
2018-07-14T12:25:46.716Z,29.79
2018-07-14T12:28:14.603Z,29.95
2018-07-14T12:30:42.607Z,30.02
2018-07-14T12:33:10.428Z,30.11
2018-07-14T12:35:38.323Z,30.20
2018-07-14T12:38:06.281Z,29.99
2018-07-14T12:40:34.210Z,29.93
2018-07-14T12:43:02.098Z,30.05
2018-07-14T12:45:29.977Z,29.96
2018-07-14T12:47:57.894Z,29.97
2018-07-14T12:50:25.810Z,29.93
2018-07-14T12:52:53.745Z,29.80
2018-07-14T12:55:21.688Z,29.91
2018-07-14T12:57:49.777Z,29.87
2018-07-14T13:00:17.686Z,29.81
2018-07-14T13:02:45.597Z,29.76
2018-07-14T13:05:13.483Z,29.89
2018-07-14T13:07:41.471Z,29.90
2018-07-14T13:10:09.372Z,30.06
2018-07-14T13:12:37.274Z,30.16
2018-07-14T13:15:05.495Z,30.26
2018-07-14T13:17:33.486Z,30.14
2018-07-14T13:20:01.457Z,30.20
2018-07-14T13:22:29.385Z,30.24
2018-07-14T13:24:57.305Z,30.04
2018-07-14T13:27:25.247Z,30.18
2018-07-14T13:29:53.184Z,30.11
2018-07-14T13:32:21.648Z,30.24
2018-07-14T13:34:49.910Z,30.17
2018-07-14T13:37:18.282Z,29.92
2018-07-14T13:39:46.657Z,29.98
2018-07-14T13:42:14.823Z,30.02
2018-07-14T13:44:43.149Z,30.21
2018-07-14T13:47:11.494Z,30.08
2018-07-14T13:49:39.877Z,29.99
2018-07-14T13:52:08.405Z,30.06
2018-07-14T13:54:36.730Z,30.06
2018-07-14T13:57:05.106Z,30.28
2018-07-14T13:59:33.490Z,30.29
2018-07-14T14:02:01.855Z,30.27
2018-07-14T14:04:29.933Z,30.44
2018-07-14T14:06:58.310Z,30.30
2018-07-14T14:09:26.592Z,30.17
2018-07-14T14:11:54.758Z,29.97
2018-07-14T14:14:22.921Z,29.87
2018-07-14T14:16:51.196Z,30.04
2018-07-14T14:19:19.382Z,30.03
2018-07-14T14:21:47.758Z,30.01
2018-07-14T14:24:16.034Z,30.08
2018-07-14T14:26:44.541Z,30.26
2018-07-14T14:29:12.861Z,30.24
2018-07-14T14:31:41.149Z,30.16
2018-07-14T14:34:09.540Z,30.21
2018-07-14T14:36:38.018Z,30.16
2018-07-14T14:39:07.215Z,30.00
2018-07-14T14:41:35.602Z,30.09
2018-07-14T14:44:04.082Z,30.12
2018-07-14T14:46:32.566Z,30.00
2018-07-14T14:49:00.983Z,29.61
2018-07-14T14:51:28.878Z,29.59
2018-07-14T14:53:57.291Z,29.83
2018-07-14T14:56:25.562Z,29.88
2018-07-14T14:58:53.511Z,29.94
2018-07-14T15:01:21.906Z,29.96
2018-07-14T15:03:50.181Z,30.29
2018-07-14T15:06:18.450Z,30.05
2018-07-14T15:08:46.861Z,30.07
2018-07-14T15:11:15.426Z,29.93
2018-07-14T15:13:43.706Z,29.82
2018-07-14T15:16:12.074Z,30.00
2018-07-14T15:18:40.554Z,29.92
2018-07-14T15:21:08.826Z,30.01
2018-07-14T15:23:37.206Z,29.98
2018-07-14T15:26:05.689Z,29.98
2018-07-14T15:28:34.165Z,29.98
2018-07-14T15:31:02.401Z,30.27
2018-07-14T15:33:30.809Z,30.00
2018-07-14T15:35:58.981Z,29.96
2018-07-14T15:38:27.474Z,29.89
2018-07-14T15:40:55.741Z,29.91
2018-07-14T15:43:24.131Z,29.99
2018-07-14T15:45:52.392Z,29.93
2018-07-14T15:48:20.673Z,29.85
2018-07-14T15:50:49.046Z,29.96
2018-07-14T15:53:17.529Z,30.00
2018-07-14T15:55:45.903Z,29.90
2018-07-14T15:58:14.291Z,29.93
2018-07-14T16:00:42.667Z,29.89
2018-07-14T16:03:10.939Z,29.83
2018-07-14T16:05:39.421Z,29.78
2018-07-14T16:08:07.699Z,29.91
2018-07-14T16:10:36.068Z,29.85
2018-07-14T16:13:04.452Z,29.99
2018-07-14T16:15:32.822Z,29.78
2018-07-14T16:18:01.111Z,29.97
2018-07-14T16:20:30.398Z,29.97
2018-07-14T16:22:58.583Z,29.85
2018-07-14T16:25:26.857Z,29.96
2018-07-14T16:27:55.228Z,29.99
2018-07-14T16:30:23.501Z,30.11
2018-07-14T16:32:51.879Z,30.02
2018-07-14T16:35:20.376Z,29.87
2018-07-14T16:37:48.283Z,29.65
2018-07-14T16:40:16.604Z,29.75
2018-07-14T16:42:44.981Z,29.72
2018-07-14T16:45:13.162Z,29.96
2018-07-14T16:47:41.429Z,29.81
2018-07-14T16:50:09.721Z,29.74
2018-07-14T16:52:38.276Z,29.72
2018-07-14T16:55:06.878Z,29.71
2018-07-14T16:57:35.217Z,29.70
2018-07-14T17:00:03.630Z,29.87
2018-07-14T17:02:32.213Z,29.78
2018-07-14T17:05:00.588Z,29.74
2018-07-14T17:07:29.102Z,29.78
2018-07-14T17:09:57.343Z,29.69
2018-07-14T17:12:25.824Z,29.51
2018-07-14T17:14:54.002Z,29.37
2018-07-14T17:17:22.281Z,29.47
2018-07-14T17:19:50.549Z,29.51
2018-07-14T17:22:18.789Z,29.35
2018-07-14T17:24:47.101Z,29.42
2018-07-14T17:27:15.474Z,29.36
2018-07-14T17:29:43.962Z,29.20
2018-07-14T17:32:12.237Z,29.05
2018-07-14T17:34:40.513Z,29.05
2018-07-14T17:37:08.679Z,29.23
2018-07-14T17:39:36.954Z,29.22
2018-07-14T17:42:05.346Z,29.08
2018-07-14T17:44:33.718Z,28.99
2018-07-14T17:47:01.989Z,28.81
2018-07-14T17:49:30.269Z,28.45
2018-07-14T17:51:58.805Z,28.56
2018-07-14T17:54:27.009Z,28.21
2018-07-14T17:56:55.425Z,28.20
2018-07-14T17:59:23.876Z,28.05
2018-07-14T18:01:52.083Z,27.98
2018-07-14T18:04:20.532Z,27.93
2018-07-14T18:06:48.907Z,27.77
2018-07-14T18:09:17.086Z,27.79
2018-07-14T18:11:45.661Z,27.74
2018-07-14T18:14:14.045Z,27.71
2018-07-14T18:16:42.016Z,27.68
2018-07-14T18:19:10.177Z,27.68
2018-07-14T18:21:38.466Z,27.56
2018-07-14T18:24:06.384Z,27.47
2018-07-14T18:26:34.577Z,27.49
2018-07-14T18:29:03.081Z,27.37
2018-07-14T18:31:31.258Z,27.44
